sensor_id;sensor_type;location;lat;lon;timestamp;temperature;humidity
34837;DHT22;21053;50.848;4.652;2022-10-26T00:01:19;13.50;99.90
34837;DHT22;21053;50.848;4.652;2022-10-26T00:03:48;13.50;99.90
34837;DHT22;21053;50.848;4.652;2022-10-26T00:06:21;13.40;99.90
34837;DHT22;21053;50.848;4.652;2022-10-26T00:08:49;13.40;99.90
34837;DHT22;21053;50.848;4.652;2022-10-26T00:11:21;13.20;99.90
34837;DHT22;21053;50.848;4.652;2022-10-26T00:13:48;13.00;99.90
34837;DHT22;21053;50.848;4.652;2022-10-26T00:16:22;13.20;99.90
34837;DHT22;21053;50.848;4.652;2022-10-26T00:18:50;13.20;99.90
34837;DHT22;21053;50.848;4.652;2022-10-26T00:21:18;13.10;99.90
34837;DHT22;21053;50.848;4.652;2022-10-26T00:23:46;13.00;99.90
34837;DHT22;21053;50.848;4.652;2022-10-26T00:26:13;13.20;99.90
34837;DHT22;21053;50.848;4.652;2022-10-26T00:28:40;13.20;99.90
34837;DHT22;21053;50.848;4.652;2022-10-26T00:31:13;13.20;99.90
34837;DHT22;21053;50.848;4.652;2022-10-26T00:33:42;13.20;99.90
34837;DHT22;21053;50.848;4.652;2022-10-26T00:36:10;13.10;99.90
34837;DHT22;21053;50.848;4.652;2022-10-26T00:38:39;13.10;99.90
34837;DHT22;21053;50.848;4.652;2022-10-26T00:41:15;13.10;99.90
34837;DHT22;21053;50.848;4.652;2022-10-26T00:43:41;13.20;99.90
34837;DHT22;21053;50.848;4.652;2022-10-26T00:46:11;13.30;99.90
34837;DHT22;21053;50.848;4.652;2022-10-26T00:48:44;13.30;99.90
34837;DHT22;21053;50.848;4.652;2022-10-26T00:54:04;13.50;99.90
34837;DHT22;21053;50.848;4.652;2022-10-26T00:56:32;13.40;99.90
34837;DHT22;21053;50.848;4.652;2022-10-26T00:59:04;13.50;99.90
34837;DHT22;21053;50.848;4.652;2022-10-26T01:01:33;13.50;99.90
34837;DHT22;21053;50.848;4.652;2022-10-26T01:04:03;13.40;99.90
34837;DHT22;21053;50.848;4.652;2022-10-26T01:06:32;13.50;99.90
34837;DHT22;21053;50.848;4.652;2022-10-26T01:09:00;13.50;99.90
34837;DHT22;21053;50.848;4.652;2022-10-26T01:11:28;13.60;99.90
34837;DHT22;21053;50.848;4.652;2022-10-26T01:13:55;13.60;99.90
34837;DHT22;21053;50.848;4.652;2022-10-26T01:22:37;13.60;99.90
34837;DHT22;21053;50.848;4.652;2022-10-26T01:27:50;13.70;99.90
34837;DHT22;21053;50.848;4.652;2022-10-26T01:30:35;13.70;99.90
34837;DHT22;21053;50.848;4.652;2022-10-26T01:36:23;13.70;99.90
34837;DHT22;21053;50.848;4.652;2022-10-26T01:39:06;13.70;99.90
34837;DHT22;21053;50.848;4.652;2022-10-26T01:44:12;13.60;99.90
34837;DHT22;21053;50.848;4.652;2022-10-26T01:46:43;13.60;99.90
34837;DHT22;21053;50.848;4.652;2022-10-26T01:49:13;13.60;99.90
34837;DHT22;21053;50.848;4.652;2022-10-26T01:51:43;13.70;99.90
34837;DHT22;21053;50.848;4.652;2022-10-26T01:54:12;13.70;99.90
34837;DHT22;21053;50.848;4.652;2022-10-26T01:56:49;13.60;99.90
34837;DHT22;21053;50.848;4.652;2022-10-26T01:59:31;13.70;99.90
34837;DHT22;21053;50.848;4.652;2022-10-26T02:05:09;13.70;99.90
34837;DHT22;21053;50.848;4.652;2022-10-26T02:15:22;13.70;99.90
34837;DHT22;21053;50.848;4.652;2022-10-26T02:18:14;13.70;99.90
34837;DHT22;21053;50.848;4.652;2022-10-26T02:20:54;13.80;99.90
34837;DHT22;21053;50.848;4.652;2022-10-26T02:23:25;13.80;99.90
34837;DHT22;21053;50.848;4.652;2022-10-26T02:25:56;13.90;99.90
34837;DHT22;21053;50.848;4.652;2022-10-26T02:28:32;13.90;99.90
34837;DHT22;21053;50.848;4.652;2022-10-26T02:30:59;13.80;99.90
34837;DHT22;21053;50.848;4.652;2022-10-26T02:33:30;13.80;99.90
34837;DHT22;21053;50.848;4.652;2022-10-26T02:35:59;13.80;99.90
34837;DHT22;21053;50.848;4.652;2022-10-26T02:38:32;13.80;99.90
34837;DHT22;21053;50.848;4.652;2022-10-26T02:41:00;13.90;99.90
34837;DHT22;21053;50.848;4.652;2022-10-26T02:43:29;13.80;99.90
34837;DHT22;21053;50.848;4.652;2022-10-26T02:46:06;13.80;99.90
34837;DHT22;21053;50.848;4.652;2022-10-26T02:48:34;13.80;99.90
34837;DHT22;21053;50.848;4.652;2022-10-26T02:56:33;13.70;99.90
34837;DHT22;21053;50.848;4.652;2022-10-26T02:59:05;13.80;99.90
34837;DHT22;21053;50.848;4.652;2022-10-26T03:01:34;13.80;99.90
34837;DHT22;21053;50.848;4.652;2022-10-26T03:04:03;13.90;99.90
34837;DHT22;21053;50.848;4.652;2022-10-26T03:06:30;13.90;99.90
34837;DHT22;21053;50.848;4.652;2022-10-26T03:08:56;13.90;99.90
34837;DHT22;21053;50.848;4.652;2022-10-26T03:11:24;13.90;99.90
34837;DHT22;21053;50.848;4.652;2022-10-26T03:13:53;13.90;99.90
34837;DHT22;21053;50.848;4.652;2022-10-26T03:16:20;14.00;99.90
34837;DHT22;21053;50.848;4.652;2022-10-26T03:18:47;13.90;99.90
34837;DHT22;21053;50.848;4.652;2022-10-26T03:21:13;13.90;99.90
34837;DHT22;21053;50.848;4.652;2022-10-26T03:23:42;13.90;99.90
34837;DHT22;21053;50.848;4.652;2022-10-26T03:26:11;13.90;99.90
34837;DHT22;21053;50.848;4.652;2022-10-26T03:28:38;13.90;99.90
34837;DHT22;21053;50.848;4.652;2022-10-26T03:31:10;14.00;99.90
34837;DHT22;21053;50.848;4.652;2022-10-26T03:33:38;14.00;99.90
34837;DHT22;21053;50.848;4.652;2022-10-26T03:36:04;14.10;99.90
34837;DHT22;21053;50.848;4.652;2022-10-26T03:38:32;14.00;99.90
34837;DHT22;21053;50.848;4.652;2022-10-26T03:41:01;14.00;99.90
34837;DHT22;21053;50.848;4.652;2022-10-26T03:43:30;14.00;99.90
34837;DHT22;21053;50.848;4.652;2022-10-26T03:45:59;14.10;99.90
34837;DHT22;21053;50.848;4.652;2022-10-26T03:48:30;14.10;99.90
34837;DHT22;21053;50.848;4.652;2022-10-26T03:50:59;14.20;99.90
34837;DHT22;21053;50.848;4.652;2022-10-26T03:53:28;14.10;99.90
34837;DHT22;21053;50.848;4.652;2022-10-26T03:55:56;14.10;99.90
34837;DHT22;21053;50.848;4.652;2022-10-26T03:58:24;14.10;99.90
34837;DHT22;21053;50.848;4.652;2022-10-26T04:00:51;14.10;99.90
34837;DHT22;21053;50.848;4.652;2022-10-26T04:03:17;14.20;99.90
34837;DHT22;21053;50.848;4.652;2022-10-26T04:05:42;14.20;99.90
34837;DHT22;21053;50.848;4.652;2022-10-26T04:08:09;14.20;99.90
34837;DHT22;21053;50.848;4.652;2022-10-26T04:10:35;14.30;99.90
34837;DHT22;21053;50.848;4.652;2022-10-26T04:13:01;14.30;99.90
34837;DHT22;21053;50.848;4.652;2022-10-26T04:15:27;14.30;99.90
34837;DHT22;21053;50.848;4.652;2022-10-26T04:18:00;14.20;99.90
34837;DHT22;21053;50.848;4.652;2022-10-26T04:20:27;14.30;99.90
34837;DHT22;21053;50.848;4.652;2022-10-26T04:23:14;14.30;99.90
34837;DHT22;21053;50.848;4.652;2022-10-26T04:25:42;14.30;99.90
34837;DHT22;21053;50.848;4.652;2022-10-26T04:28:11;14.30;99.90
34837;DHT22;21053;50.848;4.652;2022-10-26T04:30:40;14.30;99.90
34837;DHT22;21053;50.848;4.652;2022-10-26T04:33:09;14.30;99.90
34837;DHT22;21053;50.848;4.652;2022-10-26T04:35:38;14.30;99.90
34837;DHT22;21053;50.848;4.652;2022-10-26T04:38:05;14.40;99.90
34837;DHT22;21053;50.848;4.652;2022-10-26T04:40:34;14.50;99.90
34837;DHT22;21053;50.848;4.652;2022-10-26T04:43:00;14.50;99.90
34837;DHT22;21053;50.848;4.652;2022-10-26T04:45:26;14.60;99.90
34837;DHT22;21053;50.848;4.652;2022-10-26T04:48:06;14.60;99.90
34837;DHT22;21053;50.848;4.652;2022-10-26T04:50:36;14.50;99.90
34837;DHT22;21053;50.848;4.652;2022-10-26T04:53:07;14.70;99.90
34837;DHT22;21053;50.848;4.652;2022-10-26T04:55:35;14.70;99.90
34837;DHT22;21053;50.848;4.652;2022-10-26T04:58:01;14.70;99.90
34837;DHT22;21053;50.848;4.652;2022-10-26T05:00:30;14.80;99.90
34837;DHT22;21053;50.848;4.652;2022-10-26T05:03:04;14.90;99.90
34837;DHT22;21053;50.848;4.652;2022-10-26T05:05:34;15.00;99.90
34837;DHT22;21053;50.848;4.652;2022-10-26T05:08:00;15.00;99.90
34837;DHT22;21053;50.848;4.652;2022-10-26T05:10:29;15.00;99.90
34837;DHT22;21053;50.848;4.652;2022-10-26T05:12:58;15.00;99.90
34837;DHT22;21053;50.848;4.652;2022-10-26T05:15:27;15.00;99.90
34837;DHT22;21053;50.848;4.652;2022-10-26T05:18:00;15.10;99.90
34837;DHT22;21053;50.848;4.652;2022-10-26T05:20:31;15.20;99.90
34837;DHT22;21053;50.848;4.652;2022-10-26T05:22:59;15.10;99.90
34837;DHT22;21053;50.848;4.652;2022-10-26T05:25:27;15.20;99.90
34837;DHT22;21053;50.848;4.652;2022-10-26T05:28:05;15.20;99.90
34837;DHT22;21053;50.848;4.652;2022-10-26T05:30:35;15.20;99.90
34837;DHT22;21053;50.848;4.652;2022-10-26T05:33:02;15.20;99.90
34837;DHT22;21053;50.848;4.652;2022-10-26T05:35:30;15.20;99.90
34837;DHT22;21053;50.848;4.652;2022-10-26T05:38:06;15.20;99.90
34837;DHT22;21053;50.848;4.652;2022-10-26T05:40:32;15.10;99.90
34837;DHT22;21053;50.848;4.652;2022-10-26T05:43:02;15.20;99.90
34837;DHT22;21053;50.848;4.652;2022-10-26T05:45:28;15.20;99.90
34837;DHT22;21053;50.848;4.652;2022-10-26T05:47:57;15.20;99.90
34837;DHT22;21053;50.848;4.652;2022-10-26T05:50:25;15.10;99.90
34837;DHT22;21053;50.848;4.652;2022-10-26T05:52:51;15.20;99.90
34837;DHT22;21053;50.848;4.652;2022-10-26T05:55:18;15.20;99.90
34837;DHT22;21053;50.848;4.652;2022-10-26T05:57:48;15.20;99.90
34837;DHT22;21053;50.848;4.652;2022-10-26T06:00:22;15.20;99.90
34837;DHT22;21053;50.848;4.652;2022-10-26T06:05:57;15.10;99.90
34837;DHT22;21053;50.848;4.652;2022-10-26T06:08:26;15.20;99.90
34837;DHT22;21053;50.848;4.652;2022-10-26T06:10:56;15.10;99.90
34837;DHT22;21053;50.848;4.652;2022-10-26T06:13:26;15.10;99.90
34837;DHT22;21053;50.848;4.652;2022-10-26T06:25:19;14.80;99.90
34837;DHT22;21053;50.848;4.652;2022-10-26T06:30:20;14.80;99.90
34837;DHT22;21053;50.848;4.652;2022-10-26T06:32:51;14.80;99.90
34837;DHT22;21053;50.848;4.652;2022-10-26T06:35:40;14.80;99.90
34837;DHT22;21053;50.848;4.652;2022-10-26T06:38:20;14.80;99.90
34837;DHT22;21053;50.848;4.652;2022-10-26T06:40:51;14.70;99.90
34837;DHT22;21053;50.848;4.652;2022-10-26T06:46:25;14.70;99.90
34837;DHT22;21053;50.848;4.652;2022-10-26T06:51:48;14.80;99.90
34837;DHT22;21053;50.848;4.652;2022-10-26T06:54:44;14.90;99.90
34837;DHT22;21053;50.848;4.652;2022-10-26T06:57:14;14.90;99.90
34837;DHT22;21053;50.848;4.652;2022-10-26T06:59:58;14.80;99.90
34837;DHT22;21053;50.848;4.652;2022-10-26T07:02:31;14.80;99.90
34837;DHT22;21053;50.848;4.652;2022-10-26T07:05:00;15.00;99.90
34837;DHT22;21053;50.848;4.652;2022-10-26T07:07:32;15.10;99.90
34837;DHT22;21053;50.848;4.652;2022-10-26T07:10:03;15.00;99.90
34837;DHT22;21053;50.848;4.652;2022-10-26T07:12:30;15.00;99.90
34837;DHT22;21053;50.848;4.652;2022-10-26T07:14:56;15.10;99.90
34837;DHT22;21053;50.848;4.652;2022-10-26T07:17:25;15.10;99.90
34837;DHT22;21053;50.848;4.652;2022-10-26T07:19:53;15.10;99.90
34837;DHT22;21053;50.848;4.652;2022-10-26T07:22:22;15.20;99.90
34837;DHT22;21053;50.848;4.652;2022-10-26T07:24:55;15.20;99.90
34837;DHT22;21053;50.848;4.652;2022-10-26T07:27:24;15.20;99.90
34837;DHT22;21053;50.848;4.652;2022-10-26T07:29:53;15.20;99.90
34837;DHT22;21053;50.848;4.652;2022-10-26T07:32:18;15.30;99.90
34837;DHT22;21053;50.848;4.652;2022-10-26T07:34:47;15.40;99.90
34837;DHT22;21053;50.848;4.652;2022-10-26T07:37:16;15.40;99.90
34837;DHT22;21053;50.848;4.652;2022-10-26T07:39:41;15.40;99.90
34837;DHT22;21053;50.848;4.652;2022-10-26T07:42:10;15.50;99.90
34837;DHT22;21053;50.848;4.652;2022-10-26T07:44:39;15.50;99.90
34837;DHT22;21053;50.848;4.652;2022-10-26T07:47:08;15.60;99.90
34837;DHT22;21053;50.848;4.652;2022-10-26T07:49:39;15.50;99.90
34837;DHT22;21053;50.848;4.652;2022-10-26T07:52:09;15.70;99.90
34837;DHT22;21053;50.848;4.652;2022-10-26T07:54:38;15.80;99.90
34837;DHT22;21053;50.848;4.652;2022-10-26T07:57:04;15.80;99.90
34837;DHT22;21053;50.848;4.652;2022-10-26T07:59:32;15.90;99.90
34837;DHT22;21053;50.848;4.652;2022-10-26T08:02:01;15.90;99.90
34837;DHT22;21053;50.848;4.652;2022-10-26T08:04:30;16.00;99.90
34837;DHT22;21053;50.848;4.652;2022-10-26T08:06:58;16.00;99.90
34837;DHT22;21053;50.848;4.652;2022-10-26T08:09:26;16.10;99.90
34837;DHT22;21053;50.848;4.652;2022-10-26T08:11:53;16.20;99.90
34837;DHT22;21053;50.848;4.652;2022-10-26T08:14:21;16.20;99.90
34837;DHT22;21053;50.848;4.652;2022-10-26T08:16:50;16.30;99.90
34837;DHT22;21053;50.848;4.652;2022-10-26T08:19:19;16.30;99.90
34837;DHT22;21053;50.848;4.652;2022-10-26T08:21:47;16.50;99.90
34837;DHT22;21053;50.848;4.652;2022-10-26T08:24:16;16.70;99.90
34837;DHT22;21053;50.848;4.652;2022-10-26T08:26:51;16.70;99.90
34837;DHT22;21053;50.848;4.652;2022-10-26T08:29:17;16.80;99.90
34837;DHT22;21053;50.848;4.652;2022-10-26T08:31:49;16.90;99.90
34837;DHT22;21053;50.848;4.652;2022-10-26T08:34:18;17.00;99.90
34837;DHT22;21053;50.848;4.652;2022-10-26T08:36:43;17.10;99.90
34837;DHT22;21053;50.848;4.652;2022-10-26T08:39:12;17.10;99.90
34837;DHT22;21053;50.848;4.652;2022-10-26T08:41:44;17.10;99.90
34837;DHT22;21053;50.848;4.652;2022-10-26T08:44:35;17.20;99.90
34837;DHT22;21053;50.848;4.652;2022-10-26T08:47:35;17.30;99.90
34837;DHT22;21053;50.848;4.652;2022-10-26T08:50:39;17.30;99.90
34837;DHT22;21053;50.848;4.652;2022-10-26T08:53:20;17.40;99.90
34837;DHT22;21053;50.848;4.652;2022-10-26T08:55:53;17.40;99.90
34837;DHT22;21053;50.848;4.652;2022-10-26T08:58:28;17.40;99.90
34837;DHT22;21053;50.848;4.652;2022-10-26T09:00:57;17.50;99.90
34837;DHT22;21053;50.848;4.652;2022-10-26T09:03:25;17.60;99.90
34837;DHT22;21053;50.848;4.652;2022-10-26T09:12:05;18.10;99.90
34837;DHT22;21053;50.848;4.652;2022-10-26T09:14:37;18.10;99.90
34837;DHT22;21053;50.848;4.652;2022-10-26T09:17:18;18.30;99.90
34837;DHT22;21053;50.848;4.652;2022-10-26T09:20:04;18.30;99.90
34837;DHT22;21053;50.848;4.652;2022-10-26T09:25:32;18.50;99.90
34837;DHT22;21053;50.848;4.652;2022-10-26T09:28:01;18.60;99.90
34837;DHT22;21053;50.848;4.652;2022-10-26T09:30:30;18.70;99.90
34837;DHT22;21053;50.848;4.652;2022-10-26T09:33:21;18.80;99.90
34837;DHT22;21053;50.848;4.652;2022-10-26T09:38:38;19.10;99.90
34837;DHT22;21053;50.848;4.652;2022-10-26T09:41:26;19.10;99.90
34837;DHT22;21053;50.848;4.652;2022-10-26T09:49:54;19.10;99.90
34837;DHT22;21053;50.848;4.652;2022-10-26T09:52:23;19.20;99.90
34837;DHT22;21053;50.848;4.652;2022-10-26T09:54:50;19.20;99.90
34837;DHT22;21053;50.848;4.652;2022-10-26T09:57:18;19.50;99.90
34837;DHT22;21053;50.848;4.652;2022-10-26T09:59:46;19.70;99.90
34837;DHT22;21053;50.848;4.652;2022-10-26T10:02:41;20.20;99.90
34837;DHT22;21053;50.848;4.652;2022-10-26T10:08:21;22.00;99.90
34837;DHT22;21053;50.848;4.652;2022-10-26T10:10:58;23.10;99.90
34837;DHT22;21053;50.848;4.652;2022-10-26T10:13:28;23.70;99.90
34837;DHT22;21053;50.848;4.652;2022-10-26T10:16:09;24.50;98.40
34837;DHT22;21053;50.848;4.652;2022-10-26T10:18:41;24.80;97.00
34837;DHT22;21053;50.848;4.652;2022-10-26T10:21:08;25.10;96.10
34837;DHT22;21053;50.848;4.652;2022-10-26T10:23:50;25.50;95.90
34837;DHT22;21053;50.848;4.652;2022-10-26T10:26:19;25.80;94.70
34837;DHT22;21053;50.848;4.652;2022-10-26T10:29:01;25.90;94.10
34837;DHT22;21053;50.848;4.652;2022-10-26T10:31:31;26.00;93.90
34837;DHT22;21053;50.848;4.652;2022-10-26T10:33:58;26.30;93.80
34837;DHT22;21053;50.848;4.652;2022-10-26T10:36:27;26.50;92.80
34837;DHT22;21053;50.848;4.652;2022-10-26T10:38:59;26.60;93.10
34837;DHT22;21053;50.848;4.652;2022-10-26T10:41:31;26.90;92.50
34837;DHT22;21053;50.848;4.652;2022-10-26T10:44:21;26.90;91.80
34837;DHT22;21053;50.848;4.652;2022-10-26T10:46:47;26.90;90.90
34837;DHT22;21053;50.848;4.652;2022-10-26T10:49:24;27.10;91.50
34837;DHT22;21053;50.848;4.652;2022-10-26T10:51:54;27.00;90.50
34837;DHT22;21053;50.848;4.652;2022-10-26T10:54:35;26.90;91.20
34837;DHT22;21053;50.848;4.652;2022-10-26T10:57:21;26.70;91.30
34837;DHT22;21053;50.848;4.652;2022-10-26T11:00:08;27.00;91.30
34837;DHT22;21053;50.848;4.652;2022-10-26T11:05:32;27.00;90.60
34837;DHT22;21053;50.848;4.652;2022-10-26T11:16:30;28.00;87.20
34837;DHT22;21053;50.848;4.652;2022-10-26T11:21:50;28.10;85.80
34837;DHT22;21053;50.848;4.652;2022-10-26T11:24:43;28.10;86.20
34837;DHT22;21053;50.848;4.652;2022-10-26T11:27:27;27.70;86.70
34837;DHT22;21053;50.848;4.652;2022-10-26T11:32:45;27.60;85.80
34837;DHT22;21053;50.848;4.652;2022-10-26T11:35:30;27.50;85.60
34837;DHT22;21053;50.848;4.652;2022-10-26T11:38:23;27.60;87.40
34837;DHT22;21053;50.848;4.652;2022-10-26T11:44:20;27.60;84.30
34837;DHT22;21053;50.848;4.652;2022-10-26T11:47:00;27.60;84.90
34837;DHT22;21053;50.848;4.652;2022-10-26T11:50:14;28.10;85.00
34837;DHT22;21053;50.848;4.652;2022-10-26T11:53:02;28.60;81.60
34837;DHT22;21053;50.848;4.652;2022-10-26T11:55:30;29.40;82.00
34837;DHT22;21053;50.848;4.652;2022-10-26T11:57:59;30.20;80.30
34837;DHT22;21053;50.848;4.652;2022-10-26T12:00:32;30.40;78.30
34837;DHT22;21053;50.848;4.652;2022-10-26T12:03:14;30.70;77.10
34837;DHT22;21053;50.848;4.652;2022-10-26T12:05:50;30.50;75.50
34837;DHT22;21053;50.848;4.652;2022-10-26T12:08:41;30.20;79.10
34837;DHT22;21053;50.848;4.652;2022-10-26T12:22:10;30.40;75.50
34837;DHT22;21053;50.848;4.652;2022-10-26T12:25:03;30.40;75.40
34837;DHT22;21053;50.848;4.652;2022-10-26T12:41:22;30.80;71.50
34837;DHT22;21053;50.848;4.652;2022-10-26T12:43:53;29.90;72.80
34837;DHT22;21053;50.848;4.652;2022-10-26T12:48:51;29.80;77.70
34837;DHT22;21053;50.848;4.652;2022-10-26T12:56:46;30.70;75.60
34837;DHT22;21053;50.848;4.652;2022-10-26T12:59:48;30.50;72.40
34837;DHT22;21053;50.848;4.652;2022-10-26T13:02:48;30.40;74.50
34837;DHT22;21053;50.848;4.652;2022-10-26T13:08:41;29.90;75.00
34837;DHT22;21053;50.848;4.652;2022-10-26T13:13:59;27.60;79.80
34837;DHT22;21053;50.848;4.652;2022-10-26T13:16:27;27.10;82.80
34837;DHT22;21053;50.848;4.652;2022-10-26T13:18:56;26.40;84.70
34837;DHT22;21053;50.848;4.652;2022-10-26T13:21:26;26.00;87.00
34837;DHT22;21053;50.848;4.652;2022-10-26T13:24:04;25.80;86.80
34837;DHT22;21053;50.848;4.652;2022-10-26T13:32:40;24.80;90.20
34837;DHT22;21053;50.848;4.652;2022-10-26T13:35:17;24.80;90.80
34837;DHT22;21053;50.848;4.652;2022-10-26T13:37:46;24.40;90.70
34837;DHT22;21053;50.848;4.652;2022-10-26T13:40:24;24.30;91.60
34837;DHT22;21053;50.848;4.652;2022-10-26T13:43:01;24.10;91.60
34837;DHT22;21053;50.848;4.652;2022-10-26T13:45:30;24.00;91.90
34837;DHT22;21053;50.848;4.652;2022-10-26T13:50:56;23.60;92.10
34837;DHT22;21053;50.848;4.652;2022-10-26T13:53:58;23.50;92.20
34837;DHT22;21053;50.848;4.652;2022-10-26T13:56:47;23.30;92.70
34837;DHT22;21053;50.848;4.652;2022-10-26T13:59:21;23.30;93.60
34837;DHT22;21053;50.848;4.652;2022-10-26T14:02:14;23.20;93.50
34837;DHT22;21053;50.848;4.652;2022-10-26T14:05:03;23.20;93.40
34837;DHT22;21053;50.848;4.652;2022-10-26T14:07:41;23.20;93.50
34837;DHT22;21053;50.848;4.652;2022-10-26T14:10:30;23.10;93.90
34837;DHT22;21053;50.848;4.652;2022-10-26T14:12:57;23.20;93.90
34837;DHT22;21053;50.848;4.652;2022-10-26T14:15:29;23.20;94.20
34837;DHT22;21053;50.848;4.652;2022-10-26T14:17:59;23.10;93.60
34837;DHT22;21053;50.848;4.652;2022-10-26T14:20:27;23.20;94.30
34837;DHT22;21053;50.848;4.652;2022-10-26T14:22:53;23.10;93.90
34837;DHT22;21053;50.848;4.652;2022-10-26T14:25:26;23.00;94.60
34837;DHT22;21053;50.848;4.652;2022-10-26T14:27:53;23.00;94.60
34837;DHT22;21053;50.848;4.652;2022-10-26T14:30:31;23.00;94.20
34837;DHT22;21053;50.848;4.652;2022-10-26T14:32:59;23.00;94.70
34837;DHT22;21053;50.848;4.652;2022-10-26T14:35:30;23.00;94.80
34837;DHT22;21053;50.848;4.652;2022-10-26T14:38:11;23.00;95.10
34837;DHT22;21053;50.848;4.652;2022-10-26T14:40:40;22.90;94.90
34837;DHT22;21053;50.848;4.652;2022-10-26T14:43:10;22.80;94.90
34837;DHT22;21053;50.848;4.652;2022-10-26T14:45:47;22.70;95.50
34837;DHT22;21053;50.848;4.652;2022-10-26T14:48:22;22.60;96.10
34837;DHT22;21053;50.848;4.652;2022-10-26T14:53:36;22.50;96.30
34837;DHT22;21053;50.848;4.652;2022-10-26T14:56:25;22.50;96.60
34837;DHT22;21053;50.848;4.652;2022-10-26T14:58:50;22.50;97.30
34837;DHT22;21053;50.848;4.652;2022-10-26T15:01:28;22.50;97.10
34837;DHT22;21053;50.848;4.652;2022-10-26T15:04:05;22.50;97.40
34837;DHT22;21053;50.848;4.652;2022-10-26T15:06:40;22.60;97.50
34837;DHT22;21053;50.848;4.652;2022-10-26T15:09:31;22.60;96.60
34837;DHT22;21053;50.848;4.652;2022-10-26T15:11:59;22.70;96.30
34837;DHT22;21053;50.848;4.652;2022-10-26T15:14:28;22.70;96.80
34837;DHT22;21053;50.848;4.652;2022-10-26T15:16:57;22.60;96.40
34837;DHT22;21053;50.848;4.652;2022-10-26T15:19:24;22.60;96.50
34837;DHT22;21053;50.848;4.652;2022-10-26T15:21:52;22.60;96.20
34837;DHT22;21053;50.848;4.652;2022-10-26T15:24:32;22.50;96.40
34837;DHT22;21053;50.848;4.652;2022-10-26T15:27:00;22.40;96.90
34837;DHT22;21053;50.848;4.652;2022-10-26T15:29:41;22.40;97.00
34837;DHT22;21053;50.848;4.652;2022-10-26T15:37:37;22.20;97.60
34837;DHT22;21053;50.848;4.652;2022-10-26T15:40:04;22.20;98.10
34837;DHT22;21053;50.848;4.652;2022-10-26T15:42:31;22.10;97.30
34837;DHT22;21053;50.848;4.652;2022-10-26T15:44:59;22.10;97.60
34837;DHT22;21053;50.848;4.652;2022-10-26T15:47:29;22.00;97.90
34837;DHT22;21053;50.848;4.652;2022-10-26T15:49:58;22.00;97.90
34837;DHT22;21053;50.848;4.652;2022-10-26T15:52:27;21.90;97.90
34837;DHT22;21053;50.848;4.652;2022-10-26T15:54:55;21.80;98.10
34837;DHT22;21053;50.848;4.652;2022-10-26T15:57:20;21.70;98.10
34837;DHT22;21053;50.848;4.652;2022-10-26T15:59:46;21.70;99.00
34837;DHT22;21053;50.848;4.652;2022-10-26T16:02:16;21.50;99.00
34837;DHT22;21053;50.848;4.652;2022-10-26T16:04:43;21.50;99.60
34837;DHT22;21053;50.848;4.652;2022-10-26T16:07:14;21.30;99.80
34837;DHT22;21053;50.848;4.652;2022-10-26T16:09:42;21.30;99.90
34837;DHT22;21053;50.848;4.652;2022-10-26T16:12:13;21.20;99.90
34837;DHT22;21053;50.848;4.652;2022-10-26T16:14:39;21.10;99.90
34837;DHT22;21053;50.848;4.652;2022-10-26T16:17:05;20.90;99.90
34837;DHT22;21053;50.848;4.652;2022-10-26T16:19:32;20.70;99.90
34837;DHT22;21053;50.848;4.652;2022-10-26T16:22:00;20.70;99.90
34837;DHT22;21053;50.848;4.652;2022-10-26T16:24:27;20.60;99.90
34837;DHT22;21053;50.848;4.652;2022-10-26T16:26:57;20.50;99.90
34837;DHT22;21053;50.848;4.652;2022-10-26T16:29:29;20.50;99.90
34837;DHT22;21053;50.848;4.652;2022-10-26T16:31:56;20.30;99.90
34837;DHT22;21053;50.848;4.652;2022-10-26T16:34:25;20.20;99.90
34837;DHT22;21053;50.848;4.652;2022-10-26T16:37:00;20.10;99.90
34837;DHT22;21053;50.848;4.652;2022-10-26T16:39:26;20.10;99.90
34837;DHT22;21053;50.848;4.652;2022-10-26T16:41:51;20.10;99.90
34837;DHT22;21053;50.848;4.652;2022-10-26T16:44:18;20.00;99.90
34837;DHT22;21053;50.848;4.652;2022-10-26T16:46:47;19.70;99.90
34837;DHT22;21053;50.848;4.652;2022-10-26T16:49:14;19.60;99.90
34837;DHT22;21053;50.848;4.652;2022-10-26T16:51:39;19.50;99.90
34837;DHT22;21053;50.848;4.652;2022-10-26T16:54:06;19.40;99.90
34837;DHT22;21053;50.848;4.652;2022-10-26T16:56:38;19.40;99.90
34837;DHT22;21053;50.848;4.652;2022-10-26T16:59:07;19.20;99.90
34837;DHT22;21053;50.848;4.652;2022-10-26T17:01:34;19.10;99.90
34837;DHT22;21053;50.848;4.652;2022-10-26T17:04:00;19.00;99.90
34837;DHT22;21053;50.848;4.652;2022-10-26T17:06:30;19.00;99.90
34837;DHT22;21053;50.848;4.652;2022-10-26T17:08:55;19.00;99.90
34837;DHT22;21053;50.848;4.652;2022-10-26T17:11:22;18.80;99.90
34837;DHT22;21053;50.848;4.652;2022-10-26T17:13:52;18.70;99.90
34837;DHT22;21053;50.848;4.652;2022-10-26T17:16:21;18.60;99.90
34837;DHT22;21053;50.848;4.652;2022-10-26T17:18:48;18.70;99.90
34837;DHT22;21053;50.848;4.652;2022-10-26T17:21:17;18.60;99.90
34837;DHT22;21053;50.848;4.652;2022-10-26T17:23:43;18.50;99.90
34837;DHT22;21053;50.848;4.652;2022-10-26T17:26:15;18.50;99.90
34837;DHT22;21053;50.848;4.652;2022-10-26T17:28:40;18.40;99.90
34837;DHT22;21053;50.848;4.652;2022-10-26T17:31:12;18.50;99.90
34837;DHT22;21053;50.848;4.652;2022-10-26T17:33:40;18.40;99.90
34837;DHT22;21053;50.848;4.652;2022-10-26T17:36:09;18.30;99.90
34837;DHT22;21053;50.848;4.652;2022-10-26T17:38:38;18.30;99.90
34837;DHT22;21053;50.848;4.652;2022-10-26T17:41:08;18.20;99.90
34837;DHT22;21053;50.848;4.652;2022-10-26T17:43:36;18.20;99.90
34837;DHT22;21053;50.848;4.652;2022-10-26T17:46:14;17.90;99.90
34837;DHT22;21053;50.848;4.652;2022-10-26T17:48:44;17.80;99.90
34837;DHT22;21053;50.848;4.652;2022-10-26T17:51:16;17.90;99.90
34837;DHT22;21053;50.848;4.652;2022-10-26T17:53:48;18.00;99.90
34837;DHT22;21053;50.848;4.652;2022-10-26T17:56:16;17.90;99.90
34837;DHT22;21053;50.848;4.652;2022-10-26T17:58:42;17.90;99.90
34837;DHT22;21053;50.848;4.652;2022-10-26T18:01:10;17.80;99.90
34837;DHT22;21053;50.848;4.652;2022-10-26T18:03:38;17.70;99.90
34837;DHT22;21053;50.848;4.652;2022-10-26T18:06:06;17.70;99.90
34837;DHT22;21053;50.848;4.652;2022-10-26T18:08:33;17.60;99.90
34837;DHT22;21053;50.848;4.652;2022-10-26T18:11:00;17.80;99.90
34837;DHT22;21053;50.848;4.652;2022-10-26T18:13:27;17.80;99.90
34837;DHT22;21053;50.848;4.652;2022-10-26T18:16:05;17.70;99.90
34837;DHT22;21053;50.848;4.652;2022-10-26T18:18:32;17.70;99.90
34837;DHT22;21053;50.848;4.652;2022-10-26T18:21:04;17.60;99.90
34837;DHT22;21053;50.848;4.652;2022-10-26T18:23:30;17.60;99.90
34837;DHT22;21053;50.848;4.652;2022-10-26T18:26:06;17.50;99.90
34837;DHT22;21053;50.848;4.652;2022-10-26T18:28:34;17.50;99.90
34837;DHT22;21053;50.848;4.652;2022-10-26T18:31:02;17.50;99.90